createdAt,value
2022-12-05T00:10:27.596Z,0.57
2022-12-05T00:40:31.089Z,0.46
2022-12-05T01:10:34.726Z,0.42
2022-12-05T01:40:38.168Z,0.37
2022-12-05T02:10:41.566Z,0.36
2022-12-05T02:40:44.730Z,0.33
2022-12-05T03:10:48.399Z,0.30
2022-12-05T03:40:51.702Z,0.21
2022-12-05T04:10:55.115Z,0.23
2022-12-05T04:40:58.297Z,0.19
2022-12-05T05:11:01.513Z,0.08
2022-12-05T05:41:04.740Z,0.08
2022-12-05T06:11:08.159Z,0.03
2022-12-05T06:41:11.438Z,0.02
2022-12-05T07:11:14.438Z,0.04
2022-12-05T07:41:17.945Z,0.05
2022-12-05T08:11:21.166Z,0.07
2022-12-05T08:41:24.399Z,0.18
2022-12-05T09:11:27.513Z,0.31
2022-12-05T09:41:30.778Z,0.41
2022-12-05T10:11:33.839Z,0.58
2022-12-05T10:41:38.694Z,0.63
2022-12-05T11:11:42.353Z,0.68
2022-12-05T11:41:45.263Z,0.72
2022-12-05T12:11:49.096Z,0.89
2022-12-05T12:41:52.031Z,0.89
2022-12-05T13:11:55.845Z,0.86
2022-12-05T13:41:58.952Z,0.89
2022-12-05T14:12:02.902Z,0.84
2022-12-05T14:42:05.711Z,0.92
2022-12-05T15:12:10.068Z,1.08
2022-12-05T15:42:13.040Z,0.98
2022-12-05T16:12:17.292Z,1.18
2022-12-05T16:42:20.083Z,1.14
2022-12-05T17:12:23.954Z,1.13
2022-12-05T17:42:26.848Z,1.21
2022-12-05T18:12:30.775Z,1.31
2022-12-05T18:42:33.714Z,1.31
2022-12-05T19:12:37.428Z,1.44
2022-12-05T19:42:40.332Z,1.44
2022-12-05T20:12:44.060Z,1.76
2022-12-05T20:42:47.138Z,1.94
2022-12-05T21:12:50.817Z,2.02
2022-12-05T21:42:53.773Z,1.95
2022-12-05T22:12:57.803Z,1.91
2022-12-05T22:43:00.609Z,2.12
2022-12-05T23:13:04.743Z,2.33
2022-12-05T23:43:07.559Z,2.37
